createdAt,value
2022-12-01T00:01:00.765Z,71.20
2022-12-01T00:03:27.098Z,67.45
2022-12-01T00:06:01.203Z,76.75
2022-12-01T00:08:28.234Z,78.90
2022-12-01T00:10:56.234Z,80.88
2022-12-01T00:13:22.495Z,75.30
2022-12-01T00:15:48.638Z,77.22
2022-12-01T00:18:14.767Z,78.15
2022-12-01T00:20:40.867Z,82.75
2022-12-01T00:23:06.992Z,80.80
2022-12-01T00:25:33.113Z,86.63
2022-12-01T00:57:31.036Z,83.20
2022-12-01T00:59:57.140Z,82.10
2022-12-01T01:02:23.423Z,76.53
2022-12-01T01:04:49.579Z,82.68
2022-12-01T01:07:15.765Z,85.25
2022-12-01T01:09:41.876Z,89.63
2022-12-01T01:12:08.031Z,84.43
2022-12-01T01:14:34.146Z,89.68
2022-12-01T01:17:00.366Z,96.05
2022-12-01T01:19:26.532Z,89.75
2022-12-01T01:21:52.648Z,92.63
2022-12-01T01:24:18.796Z,83.72
2022-12-01T01:26:44.944Z,90.53
2022-12-01T01:29:11.145Z,75.55
2022-12-01T01:31:37.972Z,90.13
2022-12-01T01:34:04.462Z,77.53
2022-12-01T01:36:30.984Z,91.28
2022-12-01T01:38:57.093Z,84.03
2022-12-01T01:41:23.624Z,91.13
2022-12-01T01:43:50.996Z,88.28
2022-12-01T01:46:32.317Z,83.85
2022-12-01T01:49:04.992Z,87.82
2022-12-01T01:51:41.886Z,84.63
2022-12-01T01:54:15.742Z,86.60
2022-12-01T01:56:44.488Z,86.05
2022-12-01T01:59:14.945Z,89.85
2022-12-01T02:01:41.122Z,84.78
2022-12-01T02:04:07.508Z,93.20
2022-12-01T02:06:35.066Z,89.63
2022-12-01T02:09:01.168Z,89.47
2022-12-01T02:11:49.024Z,85.88
2022-12-01T02:14:25.151Z,88.53
2022-12-01T02:16:58.227Z,91.22
2022-12-01T02:19:44.772Z,93.38
2022-12-01T02:22:40.651Z,89.50
2022-12-01T02:25:26.714Z,87.70
2022-12-01T02:27:55.844Z,82.55
2022-12-01T02:30:42.599Z,90.45
2022-12-01T02:33:32.445Z,84.32
2022-12-01T02:36:19.261Z,86.70
2022-12-01T02:38:54.405Z,95.60
2022-12-01T02:41:29.699Z,89.68
2022-12-01T02:44:10.094Z,83.10
2022-12-01T02:46:41.936Z,93.00
2022-12-01T02:49:13.955Z,91.07
2022-12-01T02:51:44.780Z,87.63
2022-12-01T02:54:13.509Z,83.18
2022-12-01T02:56:39.642Z,82.57
2022-12-01T02:59:15.452Z,83.32
2022-12-01T03:02:03.613Z,86.85
2022-12-01T03:05:02.663Z,86.40
2022-12-01T03:08:01.769Z,86.20
2022-12-01T03:10:48.096Z,77.50
2022-12-01T03:13:33.891Z,86.13
2022-12-01T03:16:35.462Z,85.65
2022-12-01T03:19:16.551Z,85.93
2022-12-01T03:21:50.415Z,89.95
2022-12-01T03:24:23.885Z,89.35
2022-12-01T03:26:57.133Z,89.50
2022-12-01T03:29:31.754Z,94.68
2022-12-01T03:32:09.783Z,86.63
2022-12-01T03:34:46.521Z,84.00
2022-12-01T03:37:36.643Z,89.10
2022-12-01T03:40:06.756Z,92.93
2022-12-01T03:42:37.682Z,90.97
2022-12-01T03:45:10.529Z,85.90
2022-12-01T03:47:39.545Z,78.93
2022-12-01T03:50:08.481Z,92.55
2022-12-01T03:53:02.210Z,81.38
2022-12-01T03:55:31.510Z,84.30
2022-12-01T03:58:05.780Z,77.40
2022-12-01T04:00:32.375Z,81.72
2022-12-01T04:03:03.283Z,82.63
2022-12-01T04:05:30.821Z,76.00
2022-12-01T04:07:57.040Z,78.30
2022-12-01T04:10:23.349Z,85.35
2022-12-01T04:12:49.518Z,83.25
2022-12-01T04:15:16.819Z,85.85
2022-12-01T04:17:44.600Z,83.80
2022-12-01T04:20:13.284Z,88.60
2022-12-01T04:22:39.567Z,91.13
2022-12-01T04:25:07.134Z,84.75
2022-12-01T04:27:34.092Z,96.70
2022-12-01T04:30:00.198Z,97.82
2022-12-01T04:32:26.717Z,103.32
2022-12-01T04:34:53.098Z,98.95
2022-12-01T04:37:20.155Z,100.53
2022-12-01T04:39:46.502Z,97.05
2022-12-01T04:42:12.970Z,104.78
2022-12-01T04:44:39.075Z,96.13
2022-12-01T04:47:06.126Z,99.78
2022-12-01T04:49:33.390Z,104.43
2022-12-01T04:51:59.518Z,106.80
2022-12-01T04:54:25.844Z,102.97
2022-12-01T04:56:51.977Z,106.25
2022-12-01T04:59:18.126Z,109.80
2022-12-01T05:01:44.858Z,116.00
2022-12-01T05:04:13.453Z,107.82
2022-12-01T05:06:40.194Z,116.28
2022-12-01T05:09:06.892Z,106.75
2022-12-01T05:11:33.674Z,112.72
2022-12-01T05:14:00.385Z,107.32
2022-12-01T05:16:28.955Z,112.50
2022-12-01T05:19:16.575Z,105.50
2022-12-01T05:21:44.188Z,112.28
2022-12-01T05:24:11.398Z,113.50
2022-12-01T05:26:37.831Z,121.70
2022-12-01T05:29:04.178Z,126.85
2022-12-01T05:31:30.908Z,124.22
2022-12-01T05:33:57.093Z,121.32
2022-12-01T05:36:23.937Z,128.63
2022-12-01T05:38:50.070Z,123.65
2022-12-01T05:41:16.321Z,128.80
2022-12-01T05:43:42.626Z,127.85
2022-12-01T05:46:08.914Z,121.72
2022-12-01T05:48:35.229Z,133.13
2022-12-01T05:51:11.120Z,127.93
2022-12-01T05:53:37.333Z,128.73
2022-12-01T05:56:03.665Z,126.38
2022-12-01T05:58:29.843Z,141.00
2022-12-01T06:00:56.016Z,141.70
2022-12-01T06:03:22.141Z,139.50
2022-12-01T06:05:48.262Z,126.85
2022-12-01T06:08:14.488Z,128.73
2022-12-01T06:10:40.604Z,129.50
2022-12-01T06:13:06.805Z,133.75
2022-12-01T06:15:32.996Z,128.85
2022-12-01T06:17:59.984Z,135.57
2022-12-01T06:20:26.466Z,135.75
2022-12-01T06:22:52.624Z,147.68
2022-12-01T06:25:18.736Z,132.10
2022-12-01T06:27:44.861Z,128.02
2022-12-01T06:30:11.240Z,129.52
2022-12-01T06:32:38.362Z,143.50
2022-12-01T06:35:04.758Z,142.35
2022-12-01T06:37:30.932Z,133.93
2022-12-01T06:39:57.090Z,134.98
2022-12-01T06:42:23.262Z,139.95
2022-12-01T06:44:49.444Z,138.00
2022-12-01T06:47:16.025Z,134.85
2022-12-01T06:49:42.235Z,143.90
2022-12-01T06:52:08.368Z,130.68
2022-12-01T06:54:34.653Z,146.52
2022-12-01T06:57:00.775Z,137.50
2022-12-01T06:59:27.242Z,139.68
2022-12-01T07:01:53.797Z,139.45
2022-12-01T07:04:20.449Z,135.80
2022-12-01T07:06:46.580Z,128.73
2022-12-01T07:09:12.728Z,130.25
2022-12-01T07:11:38.901Z,133.65
2022-12-01T07:14:05.046Z,133.57
2022-12-01T07:16:31.184Z,136.05
2022-12-01T07:18:57.428Z,139.95
2022-12-01T07:21:24.917Z,134.63
2022-12-01T07:23:51.112Z,140.25
2022-12-01T07:26:18.389Z,128.52
2022-12-01T07:28:44.990Z,125.15
2022-12-01T07:31:12.596Z,126.63
2022-12-01T07:33:39.136Z,118.47
2022-12-01T07:36:06.348Z,118.70
2022-12-01T07:38:34.511Z,117.32
2022-12-01T07:41:08.669Z,122.28
2022-12-01T07:43:35.145Z,123.40
2022-12-01T07:46:06.444Z,130.65
2022-12-01T07:48:32.667Z,117.05
2022-12-01T07:50:58.792Z,118.30
2022-12-01T07:53:24.937Z,108.75
2022-12-01T07:55:51.189Z,109.80
2022-12-01T07:58:17.823Z,107.82
2022-12-01T08:00:43.978Z,105.82
2022-12-01T08:03:10.209Z,105.82
2022-12-01T08:05:36.509Z,119.93
2022-12-01T08:08:03.439Z,102.82
2022-12-01T08:10:29.586Z,104.93
2022-12-01T08:12:55.723Z,96.50
2022-12-01T08:15:21.996Z,90.28
2022-12-01T08:17:48.210Z,101.97
2022-12-01T08:20:18.431Z,97.60
2022-12-01T08:22:48.631Z,88.97
2022-12-01T08:25:14.740Z,95.47
2022-12-01T08:27:40.863Z,90.13
2022-12-01T08:30:07.704Z,101.22
2022-12-01T08:32:33.825Z,96.05
2022-12-01T08:34:59.930Z,93.90
2022-12-01T08:37:26.048Z,87.95
2022-12-01T08:39:52.202Z,99.93
2022-12-01T08:42:18.383Z,87.50
2022-12-01T08:44:44.550Z,89.25
2022-12-01T08:47:14.332Z,95.03
2022-12-01T08:49:43.305Z,80.72
2022-12-01T08:52:09.420Z,87.00
2022-12-01T08:54:35.533Z,84.05
2022-12-01T08:57:01.661Z,83.15
2022-12-01T08:59:27.871Z,90.40
2022-12-01T09:01:54.074Z,87.40
2022-12-01T09:04:22.134Z,82.20
2022-12-01T09:06:49.942Z,82.97
2022-12-01T09:09:21.833Z,78.38
2022-12-01T09:11:48.310Z,78.35
2022-12-01T09:14:16.713Z,85.82
2022-12-01T09:16:44.605Z,82.53
2022-12-01T09:19:13.061Z,81.60
2022-12-01T09:21:39.842Z,78.80
2022-12-01T09:24:07.060Z,84.65
2022-12-01T09:26:34.037Z,82.93
2022-12-01T09:29:03.190Z,77.75
2022-12-01T09:31:29.601Z,74.70
2022-12-01T09:34:06.424Z,79.75
2022-12-01T09:36:33.928Z,82.43
2022-12-01T09:39:00.749Z,76.10
2022-12-01T09:41:37.160Z,78.68
2022-12-01T09:44:21.989Z,74.47
2022-12-01T09:47:07.295Z,79.15
2022-12-01T09:49:44.371Z,75.07
2022-12-01T09:52:16.821Z,76.20
2022-12-01T09:54:42.988Z,75.57
2022-12-01T09:57:34.298Z,76.10
2022-12-01T10:00:04.585Z,79.00
2022-12-01T10:02:49.057Z,79.50
2022-12-01T10:05:22.292Z,75.30
2022-12-01T10:08:02.250Z,75.78
2022-12-01T10:10:37.819Z,70.80
2022-12-01T10:15:59.161Z,75.43
2022-12-01T10:18:44.323Z,67.25
2022-12-01T10:21:33.626Z,66.50
2022-12-01T10:24:23.170Z,69.78
2022-12-01T10:27:12.600Z,75.80
2022-12-01T10:29:49.785Z,81.88
2022-12-01T10:32:23.385Z,66.15
2022-12-01T10:34:49.675Z,66.30
2022-12-01T10:37:23.622Z,73.35
2022-12-01T10:39:52.637Z,77.28
2022-12-01T10:42:25.041Z,61.78
2022-12-01T10:44:54.112Z,69.00
2022-12-01T10:47:28.178Z,70.30
2022-12-01T10:49:54.582Z,67.32
2022-12-01T10:52:41.366Z,68.38
2022-12-01T10:55:26.425Z,64.25
2022-12-01T10:57:55.535Z,67.55
2022-12-01T11:00:58.007Z,75.55
2022-12-01T11:03:23.014Z,67.53
2022-12-01T11:05:58.318Z,70.65
2022-12-01T11:08:33.787Z,70.00
2022-12-01T11:16:02.915Z,70.72
2022-12-01T11:18:34.181Z,74.53
2022-12-01T11:21:15.144Z,63.67
2022-12-01T11:23:49.480Z,73.22
2022-12-01T11:26:35.920Z,63.30
2022-12-01T11:29:23.377Z,69.72
2022-12-01T11:31:52.899Z,67.57
2022-12-01T11:34:22.308Z,66.45
2022-12-01T11:37:03.172Z,70.57
2022-12-01T11:39:42.367Z,68.65
2022-12-01T11:42:14.415Z,65.45
2022-12-01T11:44:51.654Z,70.78
2022-12-01T11:47:23.665Z,69.90
2022-12-01T11:49:59.063Z,72.55
2022-12-01T11:52:36.502Z,68.88
2022-12-01T11:55:11.813Z,63.92
2022-12-01T12:00:18.591Z,60.30
2022-12-01T12:02:59.260Z,62.83
2022-12-01T12:05:42.495Z,63.10
2022-12-01T12:08:33.680Z,58.58
2022-12-01T12:11:20.820Z,60.40
2022-12-01T12:14:12.286Z,57.70
2022-12-01T12:17:07.870Z,63.60
2022-12-01T12:20:10.973Z,56.57
2022-12-01T12:22:56.172Z,61.78
2022-12-01T12:25:34.522Z,63.25
2022-12-01T12:28:29.833Z,56.03
2022-12-01T12:31:04.972Z,63.20
2022-12-01T12:33:53.779Z,58.22
2022-12-01T12:36:41.374Z,59.40
2022-12-01T12:39:19.405Z,64.43
2022-12-01T12:41:48.554Z,61.72
2022-12-01T12:44:24.347Z,63.03
2022-12-01T12:47:04.532Z,64.32
2022-12-01T12:49:49.499Z,57.88
2022-12-01T12:52:25.373Z,57.63
2022-12-01T12:55:02.429Z,59.05
2022-12-01T12:57:34.949Z,54.03
2022-12-01T13:00:13.626Z,62.17
2022-12-01T13:02:46.362Z,61.80
2022-12-01T13:05:23.309Z,59.22
2022-12-01T13:08:11.400Z,61.88
2022-12-01T13:10:46.533Z,56.35
2022-12-01T13:13:24.548Z,58.95
2022-12-01T13:15:52.701Z,57.50
2022-12-01T13:18:35.327Z,63.10
2022-12-01T13:21:04.019Z,60.70
2022-12-01T13:23:31.439Z,59.13
2022-12-01T13:26:00.768Z,60.85
2022-12-01T13:28:34.428Z,60.90
2022-12-01T13:31:02.473Z,60.38
2022-12-01T13:33:29.056Z,60.90
2022-12-01T13:36:22.753Z,66.45
2022-12-01T13:38:42.620Z,66.75
2022-12-01T13:41:17.860Z,66.00
2022-12-01T13:44:04.655Z,65.00
2022-12-01T13:46:53.120Z,64.05
2022-12-01T13:49:43.821Z,65.10
2022-12-01T13:52:21.946Z,62.55
2022-12-01T13:55:01.999Z,62.35
2022-12-01T13:57:31.665Z,61.95
2022-12-01T14:00:00.828Z,65.28
2022-12-01T14:02:32.645Z,61.97
2022-12-01T14:05:36.763Z,69.55
2022-12-01T14:08:22.635Z,65.18
2022-12-01T14:10:57.823Z,57.25
2022-12-01T14:13:25.147Z,58.03
2022-12-01T14:15:57.981Z,61.22
2022-12-01T14:18:29.457Z,56.10
2022-12-01T14:20:56.075Z,59.88
2022-12-01T14:23:31.555Z,60.58
2022-12-01T14:29:03.413Z,62.15
2022-12-01T14:31:32.427Z,63.35
2022-12-01T14:34:13.209Z,66.43
2022-12-01T14:36:49.357Z,57.78
2022-12-01T14:39:26.670Z,60.45
2022-12-01T14:42:00.370Z,62.08
2022-12-01T14:44:35.526Z,59.08
2022-12-01T14:47:05.367Z,63.05
2022-12-01T14:50:00.370Z,59.45
2022-12-01T14:52:37.364Z,62.15
2022-12-01T14:55:07.282Z,58.28
2022-12-01T14:58:01.623Z,61.75
2022-12-01T15:00:28.118Z,60.10
2022-12-01T15:02:57.217Z,61.58
2022-12-01T15:05:29.925Z,59.40
2022-12-01T15:08:18.530Z,55.15
2022-12-01T15:10:54.485Z,62.00
2022-12-01T15:15:55.427Z,62.90
2022-12-01T15:18:29.161Z,64.30
2022-12-01T15:21:19.650Z,59.83
2022-12-01T15:24:22.653Z,67.85
2022-12-01T15:27:02.172Z,63.17
2022-12-01T15:29:45.602Z,69.00
2022-12-01T15:32:16.302Z,65.57
2022-12-01T15:34:46.007Z,64.05
2022-12-01T15:37:16.144Z,66.30
2022-12-01T15:40:00.839Z,63.88
2022-12-01T15:42:39.469Z,58.55
2022-12-01T15:45:14.416Z,57.55
2022-12-01T15:47:46.525Z,59.33
2022-12-01T15:50:41.277Z,59.83
2022-12-01T15:53:27.630Z,59.05
2022-12-01T15:55:59.124Z,56.65
2022-12-01T15:58:33.056Z,53.80
2022-12-01T16:01:16.352Z,63.83
2022-12-01T16:03:56.112Z,59.80
2022-12-01T16:06:29.377Z,59.45
2022-12-01T16:09:22.925Z,63.95
2022-12-01T16:12:16.879Z,52.42
2022-12-01T16:15:03.243Z,62.78
2022-12-01T16:17:42.601Z,56.47
2022-12-01T16:20:32.383Z,56.25
2022-12-01T16:23:03.043Z,59.03
2022-12-01T16:25:38.208Z,63.70
2022-12-01T16:28:06.584Z,56.83
2022-12-01T16:30:38.875Z,60.28
2022-12-01T16:33:15.281Z,59.83
2022-12-01T16:35:41.595Z,57.00
2022-12-01T16:38:16.201Z,60.55
2022-12-01T16:40:43.259Z,56.22
2022-12-01T16:43:13.697Z,56.85
2022-12-01T16:45:39.927Z,61.50
2022-12-01T16:48:09.319Z,55.08
2022-12-01T16:50:35.908Z,58.40
2022-12-01T16:53:02.034Z,55.80
2022-12-01T16:55:48.076Z,55.58
2022-12-01T16:58:14.522Z,58.65
2022-12-01T17:00:41.175Z,57.10
2022-12-01T17:03:08.125Z,58.00
2022-12-01T17:05:34.473Z,56.95
2022-12-01T17:08:00.609Z,57.88
2022-12-01T17:10:26.802Z,59.17
2022-12-01T17:12:52.956Z,57.38
2022-12-01T17:15:19.086Z,52.67
2022-12-01T17:17:45.425Z,52.03
2022-12-01T17:20:11.768Z,53.13
2022-12-01T17:22:38.233Z,52.97
2022-12-01T17:25:05.320Z,51.75
2022-12-01T17:27:32.578Z,50.97
2022-12-01T17:30:01.000Z,52.90
2022-12-01T17:32:27.753Z,53.30
2022-12-01T17:34:53.971Z,56.28
2022-12-01T17:37:21.315Z,60.97
2022-12-01T17:39:47.921Z,56.00
2022-12-01T17:42:14.048Z,55.17
2022-12-01T17:44:40.162Z,55.35
2022-12-01T17:47:06.401Z,54.28
2022-12-01T17:49:32.988Z,50.83
2022-12-01T17:51:59.157Z,55.92
2022-12-01T17:54:25.285Z,57.00
2022-12-01T17:56:51.418Z,54.78
2022-12-01T17:59:17.542Z,57.22
2022-12-01T18:01:43.804Z,55.15
2022-12-01T18:04:09.968Z,52.47
2022-12-01T18:06:36.076Z,53.22
2022-12-01T18:09:02.388Z,54.72
2022-12-01T18:11:28.650Z,54.42
2022-12-01T18:13:54.787Z,53.33
2022-12-01T18:16:25.366Z,52.67
2022-12-01T18:18:52.121Z,53.22
2022-12-01T18:21:21.249Z,56.70
2022-12-01T18:23:55.774Z,52.38
2022-12-01T18:26:22.373Z,58.97
2022-12-01T18:28:54.886Z,60.30
2022-12-01T18:31:21.354Z,52.78
2022-12-01T18:33:47.578Z,54.65
2022-12-01T18:36:22.996Z,58.03
2022-12-01T18:41:16.401Z,54.83
2022-12-01T18:43:42.809Z,53.20
2022-12-01T18:46:09.123Z,53.35
2022-12-01T18:48:35.637Z,56.38
2022-12-01T18:51:03.952Z,57.55
2022-12-01T18:53:30.340Z,54.80
2022-12-01T18:56:05.553Z,55.65
2022-12-01T18:58:32.675Z,59.55
2022-12-01T19:01:00.275Z,53.13
2022-12-01T19:03:29.569Z,55.30
2022-12-01T19:05:55.696Z,52.17
2022-12-01T19:08:22.010Z,53.95
2022-12-01T19:10:59.461Z,59.17
2022-12-01T19:13:25.798Z,56.28
2022-12-01T19:15:52.005Z,56.55
2022-12-01T19:18:18.346Z,54.97
2022-12-01T19:20:44.522Z,57.83
2022-12-01T19:23:11.088Z,58.35
2022-12-01T19:25:37.404Z,52.83
2022-12-01T19:28:03.640Z,55.13
2022-12-01T19:30:29.912Z,55.65
2022-12-01T19:32:56.191Z,56.33
2022-12-01T19:35:22.437Z,52.60
2022-12-01T19:37:48.751Z,49.17
2022-12-01T19:40:14.971Z,51.22
2022-12-01T19:42:41.930Z,49.60
2022-12-01T19:45:08.969Z,52.13
2022-12-01T19:47:35.983Z,54.28
2022-12-01T19:50:02.372Z,50.53
2022-12-01T19:52:31.314Z,52.88
2022-12-01T19:54:57.525Z,50.75
2022-12-01T19:57:23.733Z,53.15
2022-12-01T19:59:49.906Z,54.78
2022-12-01T20:02:16.227Z,50.15
2022-12-01T20:04:42.386Z,46.60
2022-12-01T20:07:08.500Z,54.58
2022-12-01T20:09:34.701Z,50.72
2022-12-01T20:12:00.885Z,52.70
2022-12-01T20:14:27.040Z,50.28
2022-12-01T20:16:55.769Z,53.70
2022-12-01T20:19:21.931Z,47.65
2022-12-01T20:21:48.686Z,54.15
2022-12-01T20:24:18.650Z,53.20
2022-12-01T20:26:47.821Z,51.20
2022-12-01T20:29:17.680Z,56.15
2022-12-01T20:31:43.857Z,52.42
2022-12-01T20:34:14.320Z,50.13
2022-12-01T20:36:40.826Z,53.00
2022-12-01T20:39:08.138Z,51.47
2022-12-01T20:41:34.832Z,52.67
2022-12-01T20:44:07.007Z,53.20
2022-12-01T20:46:33.911Z,57.70
2022-12-01T20:49:00.075Z,50.35
2022-12-01T20:51:26.218Z,51.75
2022-12-01T20:54:19.584Z,53.03
2022-12-01T20:56:38.581Z,54.90
2022-12-01T20:59:06.315Z,53.83
2022-12-01T21:01:32.738Z,51.95
2022-12-01T21:03:58.921Z,52.03
2022-12-01T21:06:25.116Z,50.42
2022-12-01T21:08:51.494Z,54.28
2022-12-01T21:11:51.657Z,55.17
2022-12-01T21:14:30.080Z,56.58
2022-12-01T21:17:02.536Z,54.83
2022-12-01T21:19:43.944Z,50.97
2022-12-01T21:22:13.718Z,52.72
2022-12-01T21:24:43.841Z,52.42
2022-12-01T21:27:15.308Z,49.90
2022-12-01T21:29:47.333Z,50.22
2022-12-01T21:32:14.620Z,54.92
2022-12-01T21:34:41.572Z,52.50
2022-12-01T21:37:25.340Z,52.60
2022-12-01T21:39:53.234Z,54.28
2022-12-01T21:42:27.529Z,56.95
2022-12-01T21:44:55.899Z,57.00
2022-12-01T21:47:26.606Z,56.10
2022-12-01T21:49:56.153Z,56.40
2022-12-01T21:52:30.325Z,52.50
2022-12-01T21:55:02.757Z,53.45
2022-12-01T21:57:43.324Z,51.20
2022-12-01T22:00:30.977Z,53.22
2022-12-01T22:03:09.035Z,53.58
2022-12-01T22:05:38.078Z,53.97
2022-12-01T22:08:24.107Z,58.47
2022-12-01T22:11:08.553Z,51.08
2022-12-01T22:13:37.542Z,55.15
2022-12-01T22:16:03.882Z,55.40
2022-12-01T22:18:36.677Z,53.88
2022-12-01T22:21:22.742Z,56.75
2022-12-01T22:24:06.164Z,58.28
2022-12-01T22:26:32.939Z,50.15
2022-12-01T22:28:59.983Z,56.78
2022-12-01T22:31:27.922Z,55.65
2022-12-01T22:34:03.046Z,54.45
2022-12-01T22:38:57.999Z,55.42
2022-12-01T22:41:24.129Z,56.97
2022-12-01T22:43:57.673Z,54.15
2022-12-01T22:46:31.128Z,54.22
2022-12-01T22:48:59.813Z,59.08
2022-12-01T22:51:30.806Z,55.33
2022-12-01T22:54:16.830Z,52.53
2022-12-01T22:56:43.922Z,54.72
2022-12-01T22:59:16.802Z,57.33
2022-12-01T23:01:55.646Z,55.17
2022-12-01T23:04:31.270Z,58.58
2022-12-01T23:07:34.526Z,54.88
2022-12-01T23:10:20.279Z,58.42
2022-12-01T23:12:48.862Z,59.33
2022-12-01T23:15:30.752Z,54.30
2022-12-01T23:17:59.592Z,59.28
2022-12-01T23:20:32.159Z,55.13
2022-12-01T23:23:01.094Z,59.33
2022-12-01T23:25:27.654Z,55.58
2022-12-01T23:27:55.161Z,55.60
2022-12-01T23:30:22.389Z,57.72
2022-12-01T23:32:57.611Z,60.10
2022-12-01T23:35:23.748Z,60.33
2022-12-01T23:37:49.920Z,55.80
2022-12-01T23:40:26.363Z,60.75
2022-12-01T23:42:52.596Z,55.05
2022-12-01T23:45:24.009Z,62.20
2022-12-01T23:47:52.946Z,59.42
2022-12-01T23:50:22.479Z,58.20
2022-12-01T23:52:48.948Z,55.55
2022-12-01T23:55:21.904Z,55.28
2022-12-01T23:57:48.918Z,54.15
